createdAt,value
2018-01-06T00:00:28.593Z,6.47
2018-01-06T00:02:56.173Z,6.52
2018-01-06T00:05:23.812Z,6.50
2018-01-06T00:07:51.403Z,6.48
2018-01-06T00:10:19.036Z,6.39
2018-01-06T00:12:46.677Z,6.40
2018-01-06T00:15:14.256Z,6.43
2018-01-06T00:17:42.189Z,6.40
2018-01-06T00:20:09.803Z,6.39
2018-01-06T00:22:37.724Z,6.39
2018-01-06T00:25:05.385Z,6.43
2018-01-06T00:27:33.258Z,6.44
2018-01-06T00:30:01.940Z,6.47
2018-01-06T00:32:29.544Z,6.32
2018-01-06T00:34:57.119Z,6.30
2018-01-06T00:37:25.034Z,6.22
2018-01-06T00:39:53.003Z,6.24
2018-01-06T00:42:20.578Z,6.14
2018-01-06T00:44:48.176Z,6.16
2018-01-06T00:47:15.790Z,6.14
2018-01-06T00:49:43.417Z,6.13
2018-01-06T00:52:11.019Z,6.09
2018-01-06T00:54:38.602Z,6.20
2018-01-06T00:57:06.221Z,6.06
2018-01-06T00:59:33.824Z,6.08
2018-01-06T01:02:01.455Z,5.99
2018-01-06T01:04:30.233Z,5.93
2018-01-06T01:06:57.837Z,5.92
2018-01-06T01:09:25.496Z,6.00
2018-01-06T01:11:53.071Z,5.97
2018-01-06T01:14:20.718Z,5.98
2018-01-06T01:16:48.293Z,5.98
2018-01-06T01:19:15.871Z,6.01
2018-01-06T01:21:43.497Z,6.03
2018-01-06T01:24:11.100Z,6.07
2018-01-06T01:26:38.779Z,6.07
2018-01-06T01:29:06.685Z,6.08
2018-01-06T01:31:34.307Z,6.12
2018-01-06T01:34:01.919Z,6.10
2018-01-06T01:36:29.499Z,6.08
2018-01-06T01:38:57.141Z,6.09
2018-01-06T01:41:24.737Z,6.07
2018-01-06T01:43:52.329Z,6.09
2018-01-06T01:46:20.626Z,6.07
2018-01-06T01:48:48.288Z,6.11
2018-01-06T01:51:15.927Z,6.11
2018-01-06T01:53:43.503Z,6.17
2018-01-06T01:56:11.115Z,6.16
2018-01-06T01:58:38.733Z,6.15
2018-01-06T02:01:06.312Z,6.19
2018-01-06T02:03:33.955Z,6.11
2018-01-06T02:06:01.607Z,6.16
2018-01-06T02:08:29.194Z,6.13
2018-01-06T02:10:56.807Z,6.10
2018-01-06T02:13:24.392Z,6.14
2018-01-06T02:15:52.277Z,6.09
2018-01-06T02:18:20.918Z,6.00
2018-01-06T02:20:48.509Z,6.06
2018-01-06T02:23:16.141Z,6.07
2018-01-06T02:25:43.760Z,6.04
2018-01-06T02:28:11.392Z,6.02
2018-01-06T02:30:38.972Z,6.07
2018-01-06T02:33:06.583Z,6.00
2018-01-06T02:35:34.193Z,6.06
2018-01-06T02:38:01.824Z,6.04
2018-01-06T02:40:29.494Z,6.06
2018-01-06T02:42:57.080Z,5.96
2018-01-06T02:45:24.926Z,6.01
2018-01-06T02:47:52.548Z,5.98
2018-01-06T02:50:20.139Z,5.99
2018-01-06T02:52:47.767Z,5.89
2018-01-06T02:55:15.355Z,5.94
2018-01-06T02:57:43.255Z,5.95
2018-01-06T03:00:10.888Z,5.94
2018-01-06T03:02:38.484Z,5.91
2018-01-06T03:05:06.107Z,5.93
2018-01-06T03:07:33.679Z,5.91
2018-01-06T03:10:01.573Z,5.93
2018-01-06T03:12:29.190Z,5.89
2018-01-06T03:14:57.110Z,5.88
2018-01-06T03:17:24.722Z,5.82
2018-01-06T03:19:52.640Z,5.78
2018-01-06T03:22:20.503Z,5.74
2018-01-06T03:24:48.117Z,5.68
2018-01-06T03:27:15.695Z,5.69
2018-01-06T03:29:43.324Z,5.69
2018-01-06T03:32:11.156Z,5.79
2018-01-06T03:34:39.025Z,5.74
2018-01-06T03:37:06.903Z,5.67
2018-01-06T03:39:34.504Z,5.68
2018-01-06T03:42:02.128Z,5.67
2018-01-06T03:44:29.704Z,5.76
2018-01-06T03:46:57.301Z,5.75
2018-01-06T03:49:25.745Z,5.76
2018-01-06T03:51:53.317Z,5.79
2018-01-06T03:54:20.949Z,5.80
2018-01-06T03:56:48.524Z,5.81
2018-01-06T03:59:16.098Z,5.83
2018-01-06T04:01:43.704Z,5.85
2018-01-06T04:04:11.289Z,5.83
2018-01-06T04:06:39.167Z,5.87
2018-01-06T04:09:06.842Z,5.80
2018-01-06T04:11:34.424Z,5.84
2018-01-06T04:14:02.054Z,5.84
2018-01-06T04:16:29.916Z,5.85
2018-01-06T04:18:57.547Z,5.81
2018-01-06T04:21:25.124Z,5.83
2018-01-06T04:23:52.734Z,5.85
2018-01-06T04:26:20.356Z,5.88
2018-01-06T04:28:48.228Z,5.87
2018-01-06T04:31:16.097Z,5.85
2018-01-06T04:33:43.672Z,5.89
2018-01-06T04:36:11.538Z,5.68
2018-01-06T04:38:39.151Z,5.51
2018-01-06T04:41:06.740Z,5.50
2018-01-06T04:43:34.346Z,5.45
2018-01-06T04:46:01.940Z,5.42
2018-01-06T04:48:29.553Z,5.48
2018-01-06T04:50:57.181Z,5.50
2018-01-06T04:53:24.761Z,5.57
2018-01-06T04:55:52.385Z,5.62
2018-01-06T04:58:20.050Z,5.64
2018-01-06T05:00:47.621Z,5.60
2018-01-06T05:03:15.255Z,5.55
2018-01-06T05:05:42.850Z,5.58
2018-01-06T05:08:10.470Z,5.53
2018-01-06T05:10:38.096Z,5.45
2018-01-06T05:13:05.677Z,5.53
2018-01-06T05:15:33.620Z,5.58
2018-01-06T05:18:01.217Z,5.45
2018-01-06T05:20:29.628Z,5.44
2018-01-06T05:22:57.211Z,5.44
2018-01-06T05:25:24.792Z,5.44
2018-01-06T05:27:52.406Z,5.43
2018-01-06T05:30:20.152Z,5.46
2018-01-06T05:32:47.832Z,5.48
2018-01-06T05:35:15.421Z,5.50
2018-01-06T05:37:43.001Z,5.48
2018-01-06T05:40:10.616Z,5.38
2018-01-06T05:42:38.209Z,5.34
2018-01-06T05:45:05.838Z,5.27
2018-01-06T05:47:33.416Z,5.23
2018-01-06T05:50:01.009Z,5.22
2018-01-06T05:52:28.640Z,5.26
2018-01-06T05:54:56.221Z,5.27
2018-01-06T05:57:24.103Z,5.32
2018-01-06T05:59:51.687Z,5.34
2018-01-06T06:02:19.263Z,5.25
2018-01-06T06:04:46.868Z,5.26
2018-01-06T06:07:14.776Z,5.35
2018-01-06T06:09:42.725Z,5.35
2018-01-06T06:12:10.314Z,5.30
2018-01-06T06:14:37.896Z,5.31
2018-01-06T06:17:05.526Z,5.32
2018-01-06T06:19:33.108Z,5.24
2018-01-06T06:22:00.736Z,5.24
2018-01-06T06:24:28.359Z,5.17
2018-01-06T06:26:56.008Z,5.15
2018-01-06T06:29:23.945Z,5.21
2018-01-06T06:31:51.808Z,5.28
2018-01-06T06:34:19.475Z,5.30
2018-01-06T06:36:47.113Z,5.35
2018-01-06T06:39:14.689Z,5.30
2018-01-06T06:41:42.294Z,5.16
2018-01-06T06:44:09.870Z,5.26
2018-01-06T06:46:37.456Z,5.22
2018-01-06T06:49:05.076Z,5.24
2018-01-06T06:51:32.670Z,5.27
2018-01-06T06:54:00.648Z,5.29
2018-01-06T06:56:28.308Z,5.32
2018-01-06T06:58:55.908Z,5.38
2018-01-06T07:01:23.560Z,5.42
2018-01-06T07:03:51.424Z,5.38
2018-01-06T07:06:19.008Z,5.36
2018-01-06T07:08:46.642Z,5.37
2018-01-06T07:11:14.256Z,5.38
2018-01-06T07:13:41.907Z,5.42
2018-01-06T07:16:09.839Z,5.53
2018-01-06T07:18:37.436Z,5.47
2018-01-06T07:21:05.054Z,5.47
2018-01-06T07:23:32.649Z,5.53
2018-01-06T07:26:00.279Z,5.58
2018-01-06T07:28:27.950Z,5.64
2018-01-06T07:30:55.532Z,5.63
2018-01-06T07:33:23.148Z,5.61
2018-01-06T07:35:50.736Z,5.62
2018-01-06T07:38:18.397Z,5.69
2018-01-06T07:40:45.979Z,5.70
2018-01-06T07:43:13.560Z,5.74
2018-01-06T07:45:41.180Z,5.70
2018-01-06T07:48:08.843Z,5.68
2018-01-06T07:50:36.480Z,5.74
2018-01-06T07:53:04.065Z,5.76
2018-01-06T07:55:31.928Z,5.79
2018-01-06T07:58:01.433Z,5.77
2018-01-06T08:00:29.075Z,5.85
2018-01-06T08:02:56.709Z,5.78
2018-01-06T08:05:24.304Z,5.78
2018-01-06T08:07:51.911Z,5.82
2018-01-06T08:10:19.515Z,5.87
2018-01-06T08:12:47.411Z,5.94
2018-01-06T08:15:15.047Z,5.95
2018-01-06T08:17:42.678Z,6.00
2018-01-06T08:20:10.286Z,6.04
2018-01-06T08:22:37.931Z,5.98
2018-01-06T08:25:05.835Z,6.10
2018-01-06T08:27:33.475Z,6.09
2018-01-06T08:30:01.092Z,6.05
2018-01-06T08:32:28.694Z,6.06
2018-01-06T08:34:56.309Z,6.07
2018-01-06T08:37:23.888Z,6.12
2018-01-06T08:39:51.547Z,6.16
2018-01-06T08:42:19.123Z,6.20
2018-01-06T08:44:46.697Z,6.30
2018-01-06T08:47:14.582Z,6.36
2018-01-06T08:49:42.176Z,6.42
2018-01-06T08:52:09.837Z,6.51
2018-01-06T08:54:37.452Z,6.51
2018-01-06T08:57:05.096Z,6.53
2018-01-06T08:59:32.703Z,6.65
2018-01-06T09:02:00.280Z,6.70
2018-01-06T09:04:27.934Z,6.59
2018-01-06T09:06:55.807Z,6.68
2018-01-06T09:09:23.467Z,6.74
2018-01-06T09:11:51.435Z,6.74
2018-01-06T09:14:19.017Z,6.81
2018-01-06T09:16:46.639Z,6.84
2018-01-06T09:19:14.546Z,6.83
2018-01-06T09:21:42.493Z,6.77
2018-01-06T09:24:10.227Z,6.85
2018-01-06T09:26:37.800Z,6.96
2018-01-06T09:29:05.789Z,7.00
2018-01-06T09:31:33.375Z,7.11
2018-01-06T09:34:01.227Z,7.14
2018-01-06T09:36:29.207Z,7.25
2018-01-06T09:38:56.777Z,7.26
2018-01-06T09:41:24.416Z,7.32
2018-01-06T09:43:52.289Z,7.31
2018-01-06T09:46:19.885Z,7.28
2018-01-06T09:48:47.814Z,7.27
2018-01-06T09:51:15.387Z,7.19
2018-01-06T09:53:43.021Z,7.24
2018-01-06T09:56:10.635Z,7.32
2018-01-06T09:58:38.270Z,7.23
2018-01-06T10:01:05.904Z,7.15
2018-01-06T10:03:33.521Z,7.21
2018-01-06T10:06:01.159Z,7.35
2018-01-06T10:08:28.758Z,7.48
2018-01-06T10:10:56.468Z,7.64
2018-01-06T10:13:24.123Z,7.71
2018-01-06T10:15:52.412Z,7.75
2018-01-06T10:18:20.046Z,7.62
2018-01-06T10:20:47.953Z,7.58
2018-01-06T10:23:15.813Z,7.66
2018-01-06T10:25:43.687Z,7.58
2018-01-06T10:28:11.276Z,7.37
2018-01-06T10:30:38.916Z,7.39
2018-01-06T10:33:06.508Z,7.48
2018-01-06T10:35:34.112Z,7.43
2018-01-06T10:38:01.740Z,7.39
2018-01-06T10:40:29.326Z,7.52
2018-01-06T10:42:57.316Z,7.53
2018-01-06T10:45:25.201Z,7.71
2018-01-06T10:47:52.784Z,7.86
2018-01-06T10:50:20.396Z,8.00
2018-01-06T10:52:48.000Z,8.09
2018-01-06T10:55:15.642Z,7.97
2018-01-06T10:57:43.613Z,8.11
2018-01-06T11:00:11.478Z,8.01
2018-01-06T11:02:39.098Z,8.07
2018-01-06T11:05:06.696Z,7.92
2018-01-06T11:07:34.315Z,7.96
2018-01-06T11:10:01.897Z,7.93
2018-01-06T11:12:29.497Z,7.93
2018-01-06T11:14:57.452Z,7.98
2018-01-06T11:17:25.063Z,7.95
2018-01-06T11:19:52.711Z,8.03
2018-01-06T11:22:20.308Z,7.99
2018-01-06T11:24:48.231Z,8.13
2018-01-06T11:27:15.901Z,8.02
2018-01-06T11:29:43.840Z,8.06
2018-01-06T11:32:11.464Z,8.01
2018-01-06T11:34:39.086Z,8.00
2018-01-06T11:37:06.683Z,7.89
2018-01-06T11:39:34.453Z,7.94
2018-01-06T11:42:02.073Z,7.91
2018-01-06T11:44:29.715Z,7.90
2018-01-06T11:46:57.863Z,7.84
2018-01-06T11:49:25.507Z,7.98
2018-01-06T11:51:53.233Z,8.17
2018-01-06T11:54:21.191Z,8.24
2018-01-06T11:56:48.827Z,8.30
2018-01-06T11:59:16.420Z,8.46
2018-01-06T12:01:44.448Z,8.32
2018-01-06T12:04:12.326Z,8.39
2018-01-06T12:06:39.989Z,8.34
2018-01-06T12:09:07.621Z,8.22
2018-01-06T12:11:35.241Z,8.09
2018-01-06T12:14:02.881Z,7.84
2018-01-06T12:16:30.527Z,7.79
2018-01-06T12:18:58.154Z,7.72
2018-01-06T12:21:34.134Z,7.80
2018-01-06T12:24:09.435Z,7.97
2018-01-06T12:26:37.717Z,8.12
2018-01-06T12:29:05.442Z,8.10
2018-01-06T12:31:33.046Z,8.13
2018-01-06T12:34:00.668Z,8.13
2018-01-06T12:36:28.261Z,8.23
2018-01-06T12:38:55.922Z,8.14
2018-01-06T12:41:23.521Z,8.29
2018-01-06T12:43:51.153Z,8.35
2018-01-06T12:46:18.810Z,8.35
2018-01-06T12:48:46.414Z,8.39
2018-01-06T12:51:14.048Z,8.31
2018-01-06T12:53:41.690Z,8.35
2018-01-06T12:56:09.575Z,8.43
2018-01-06T12:58:37.284Z,8.52
2018-01-06T13:01:04.887Z,8.48
2018-01-06T13:03:32.557Z,8.48
2018-01-06T13:06:00.160Z,8.64
2018-01-06T13:08:27.766Z,8.74
2018-01-06T13:10:55.400Z,8.79
2018-01-06T13:13:23.042Z,8.74
2018-01-06T13:15:50.784Z,8.61
2018-01-06T13:18:18.406Z,8.70
2018-01-06T13:20:46.307Z,8.66
2018-01-06T13:23:14.261Z,8.53
2018-01-06T13:25:41.921Z,8.57
2018-01-06T13:28:09.605Z,8.48
2018-01-06T13:30:37.235Z,8.53
2018-01-06T13:33:04.813Z,8.38
2018-01-06T13:35:32.482Z,8.32
2018-01-06T13:38:00.113Z,8.30
2018-01-06T13:40:27.867Z,8.26
2018-01-06T13:42:55.457Z,8.25
2018-01-06T13:45:23.257Z,8.25
2018-01-06T13:47:50.869Z,8.24
2018-01-06T13:50:18.514Z,8.13
2018-01-06T13:52:46.128Z,8.16
2018-01-06T13:55:13.769Z,8.17
2018-01-06T13:57:41.649Z,8.24
2018-01-06T14:00:09.313Z,8.21
2018-01-06T14:02:36.952Z,8.19
2018-01-06T14:05:04.841Z,8.14
2018-01-06T14:07:32.581Z,8.17
2018-01-06T14:10:00.676Z,8.13
2018-01-06T14:12:28.301Z,8.11
2018-01-06T14:14:55.907Z,8.07
2018-01-06T14:17:23.533Z,8.05
2018-01-06T14:19:51.152Z,8.05
2018-01-06T14:22:18.792Z,8.00
2018-01-06T14:24:47.214Z,7.97
2018-01-06T14:27:14.816Z,7.94
2018-01-06T14:29:42.562Z,7.89
2018-01-06T14:32:10.270Z,7.88
2018-01-06T14:34:37.888Z,7.85
2018-01-06T14:37:05.499Z,7.80
2018-01-06T14:39:33.108Z,7.79
2018-01-06T14:42:01.252Z,7.79
2018-01-06T14:44:29.016Z,7.81
2018-01-06T14:46:56.788Z,7.82
2018-01-06T14:49:24.720Z,7.81
2018-01-06T14:51:54.295Z,7.87
2018-01-06T14:54:21.969Z,7.83
2018-01-06T14:56:49.582Z,7.79
2018-01-06T14:59:17.236Z,7.84
2018-01-06T15:01:45.083Z,7.78
2018-01-06T15:04:12.671Z,7.74
2018-01-06T15:06:40.332Z,7.73
2018-01-06T15:09:07.927Z,7.71
2018-01-06T15:11:35.595Z,7.69
2018-01-06T15:14:03.208Z,7.73
2018-01-06T15:16:31.169Z,7.75
2018-01-06T15:18:58.783Z,7.71
2018-01-06T15:21:26.411Z,7.68
2018-01-06T15:23:54.060Z,7.66
2018-01-06T15:26:21.669Z,7.65
2018-01-06T15:28:49.385Z,7.63
2018-01-06T15:31:17.243Z,7.62
2018-01-06T15:33:44.936Z,7.62
2018-01-06T15:36:12.820Z,7.62
2018-01-06T15:38:40.477Z,7.61
2018-01-06T15:41:08.108Z,7.62
2018-01-06T15:43:35.732Z,7.61
2018-01-06T15:46:03.638Z,7.62
2018-01-06T15:48:31.271Z,7.60
2018-01-06T15:50:58.880Z,7.60
2018-01-06T15:53:26.480Z,7.59
2018-01-06T15:55:54.390Z,7.59
2018-01-06T15:58:21.996Z,7.60
2018-01-06T16:00:49.664Z,7.60
2018-01-06T16:03:17.992Z,7.58
2018-01-06T16:05:45.631Z,7.61
2018-01-06T16:08:13.249Z,7.56
2018-01-06T16:10:40.872Z,7.56
2018-01-06T16:13:08.492Z,7.55
2018-01-06T16:15:36.087Z,7.55
2018-01-06T16:18:03.980Z,7.55
2018-01-06T16:20:31.597Z,7.51
2018-01-06T16:22:59.187Z,7.48
2018-01-06T16:25:26.873Z,7.50
2018-01-06T16:27:54.475Z,7.48
2018-01-06T16:30:22.087Z,7.48
2018-01-06T16:32:49.704Z,7.48
2018-01-06T16:35:17.339Z,7.49
2018-01-06T16:37:44.983Z,7.45
2018-01-06T16:40:12.567Z,7.36
2018-01-06T16:42:40.159Z,7.37
2018-01-06T16:45:07.803Z,7.34
2018-01-06T16:47:35.387Z,7.35
2018-01-06T16:50:03.051Z,7.34
2018-01-06T16:52:30.674Z,7.36
2018-01-06T16:54:58.480Z,7.37
2018-01-06T16:57:26.126Z,7.37
2018-01-06T16:59:53.718Z,7.37
2018-01-06T17:02:21.359Z,7.37
2018-01-06T17:04:49.035Z,7.39
2018-01-06T17:07:16.632Z,7.38
2018-01-06T17:09:44.276Z,7.38
2018-01-06T17:12:11.876Z,7.37
2018-01-06T17:14:39.537Z,7.37
2018-01-06T17:17:07.121Z,7.40
2018-01-06T17:19:34.700Z,7.37
2018-01-06T17:22:02.361Z,7.37
2018-01-06T17:24:30.206Z,7.39
2018-01-06T17:26:57.854Z,7.37
2018-01-06T17:29:25.441Z,7.39
2018-01-06T17:31:53.040Z,7.38
2018-01-06T17:34:20.916Z,7.37
2018-01-06T17:36:48.578Z,7.38
2018-01-06T17:39:16.207Z,7.37
2018-01-06T17:41:43.805Z,7.38
2018-01-06T17:44:11.669Z,7.35
2018-01-06T17:46:39.288Z,7.35
2018-01-06T17:49:06.887Z,7.37
2018-01-06T17:51:34.525Z,7.32
2018-01-06T17:54:02.121Z,7.29
2018-01-06T17:56:29.979Z,7.25
2018-01-06T17:58:57.859Z,7.27
2018-01-06T18:01:25.725Z,7.27
2018-01-06T18:03:53.410Z,7.27
2018-01-06T18:06:21.022Z,7.26
2018-01-06T18:08:48.656Z,7.23
2018-01-06T18:11:16.271Z,7.25
2018-01-06T18:13:44.238Z,7.28
2018-01-06T18:16:12.237Z,7.28
2018-01-06T18:18:39.832Z,7.31
2018-01-06T18:21:07.741Z,7.29
2018-01-06T18:23:35.718Z,7.28
2018-01-06T18:26:03.329Z,7.28
2018-01-06T18:28:30.968Z,7.30
2018-01-06T18:30:58.621Z,7.28
2018-01-06T18:33:26.211Z,7.27
2018-01-06T18:35:53.840Z,7.25
2018-01-06T18:38:21.459Z,7.25
2018-01-06T18:40:49.149Z,7.23
2018-01-06T18:43:16.768Z,7.20
2018-01-06T18:45:44.368Z,7.20
2018-01-06T18:48:11.981Z,7.18
2018-01-06T18:50:39.588Z,7.17
2018-01-06T18:53:07.224Z,7.15
2018-01-06T18:55:34.909Z,7.14
2018-01-06T18:58:02.505Z,7.12
2018-01-06T19:00:30.450Z,7.11
2018-01-06T19:02:58.054Z,7.08
2018-01-06T19:05:25.747Z,7.06
2018-01-06T19:07:53.372Z,7.04
2018-01-06T19:10:20.953Z,7.05
2018-01-06T19:12:48.576Z,7.04
2018-01-06T19:15:16.207Z,6.99
2018-01-06T19:17:43.825Z,6.97
2018-01-06T19:20:11.425Z,6.95
2018-01-06T19:22:39.001Z,6.92
2018-01-06T19:25:06.628Z,6.91
2018-01-06T19:27:34.225Z,6.87
2018-01-06T19:30:02.103Z,6.87
2018-01-06T19:32:29.982Z,6.86
2018-01-06T19:34:57.609Z,6.87
2018-01-06T19:37:25.228Z,6.87
2018-01-06T19:39:52.838Z,6.85
2018-01-06T19:42:20.492Z,6.83
2018-01-06T19:44:48.091Z,6.80
2018-01-06T19:47:16.171Z,6.81
2018-01-06T19:49:43.772Z,6.80
2018-01-06T19:52:11.362Z,6.81
2018-01-06T19:54:38.983Z,6.79
2018-01-06T19:57:06.679Z,6.77
2018-01-06T19:59:34.278Z,6.76
2018-01-06T20:02:02.143Z,6.77
2018-01-06T20:04:30.242Z,6.75
2018-01-06T20:06:57.930Z,6.72
2018-01-06T20:09:25.532Z,6.72
2018-01-06T20:11:53.142Z,6.71
2018-01-06T20:14:20.813Z,6.71
2018-01-06T20:16:48.433Z,6.71
2018-01-06T20:19:16.073Z,6.69
2018-01-06T20:21:44.078Z,6.66
2018-01-06T20:24:11.701Z,6.65
2018-01-06T20:26:39.341Z,6.64
2018-01-06T20:29:07.022Z,6.61
2018-01-06T20:31:34.710Z,6.60
2018-01-06T20:34:02.309Z,6.59
2018-01-06T20:36:29.921Z,6.60
2018-01-06T20:38:57.553Z,6.60
2018-01-06T20:41:25.163Z,6.60
2018-01-06T20:43:52.792Z,6.61
2018-01-06T20:46:20.400Z,6.63
2018-01-06T20:48:48.068Z,6.65
2018-01-06T20:51:15.718Z,6.64
2018-01-06T20:53:43.445Z,6.62
2018-01-06T20:56:11.510Z,6.62
2018-01-06T20:58:39.125Z,6.63
2018-01-06T21:01:06.713Z,6.72
2018-01-06T21:03:34.368Z,6.74
2018-01-06T21:06:01.981Z,6.83
2018-01-06T21:08:29.880Z,6.81
2018-01-06T21:10:58.884Z,6.78
2018-01-06T21:13:27.076Z,6.74
2018-01-06T21:15:54.672Z,6.71
2018-01-06T21:18:22.392Z,6.76
2018-01-06T21:20:50.169Z,6.86
2018-01-06T21:23:17.945Z,6.91
2018-01-06T21:25:45.712Z,6.82
2018-01-06T21:28:13.290Z,6.76
2018-01-06T21:30:40.889Z,6.68
2018-01-06T21:33:08.525Z,6.73
2018-01-06T21:35:36.130Z,6.74
2018-01-06T21:38:03.766Z,6.86
2018-01-06T21:40:31.368Z,6.78
2018-01-06T21:42:59.060Z,6.72
2018-01-06T21:45:26.705Z,6.66
2018-01-06T21:47:54.411Z,6.80
2018-01-06T21:50:22.066Z,6.83
2018-01-06T21:52:49.661Z,6.84
2018-01-06T21:55:17.264Z,6.75
2018-01-06T21:57:44.977Z,6.70
2018-01-06T22:00:12.902Z,6.76
2018-01-06T22:02:40.542Z,6.73
2018-01-06T22:05:08.204Z,6.73
2018-01-06T22:07:35.825Z,6.74
2018-01-06T22:10:04.187Z,6.68
2018-01-06T22:12:31.780Z,6.64
2018-01-06T22:14:59.836Z,6.66
2018-01-06T22:17:27.416Z,6.64
2018-01-06T22:19:55.011Z,6.63
2018-01-06T22:22:22.641Z,6.58
2018-01-06T22:24:50.225Z,6.66
2018-01-06T22:27:17.840Z,6.62
2018-01-06T22:29:45.488Z,6.48
2018-01-06T22:32:13.101Z,6.49
2018-01-06T22:34:40.721Z,6.55
2018-01-06T22:37:09.512Z,6.38
2018-01-06T22:39:37.198Z,6.25
2018-01-06T22:42:04.850Z,6.34
2018-01-06T22:44:32.428Z,6.22
2018-01-06T22:47:00.033Z,6.28
2018-01-06T22:49:27.628Z,6.25
2018-01-06T22:51:55.245Z,6.29
2018-01-06T22:54:22.908Z,6.25
2018-01-06T22:56:50.520Z,6.32
2018-01-06T22:59:18.225Z,6.24
2018-01-06T23:01:45.808Z,6.25
2018-01-06T23:04:13.423Z,6.15
2018-01-06T23:06:41.015Z,6.11
2018-01-06T23:09:08.625Z,6.15
2018-01-06T23:11:36.253Z,6.22
2018-01-06T23:14:03.894Z,6.20
2018-01-06T23:16:31.522Z,6.20
2018-01-06T23:18:59.242Z,6.23
2018-01-06T23:21:26.837Z,6.25
2018-01-06T23:23:54.489Z,6.22
2018-01-06T23:26:22.072Z,6.16
2018-01-06T23:28:49.833Z,6.17
2018-01-06T23:31:17.472Z,6.13
2018-01-06T23:33:45.087Z,6.11
2018-01-06T23:36:12.839Z,6.01
2018-01-06T23:38:40.788Z,6.04
2018-01-06T23:41:08.861Z,6.08
2018-01-06T23:43:36.520Z,6.13
2018-01-06T23:46:04.162Z,6.08
2018-01-06T23:48:31.823Z,6.06
2018-01-06T23:50:59.405Z,6.05
2018-01-06T23:53:27.028Z,6.07
2018-01-06T23:55:54.704Z,6.12
2018-01-06T23:58:22.339Z,6.13
